Time;durP1;ratioP1;P1;durP2;ratioP2;P2;SDS_P1;SDS_P2;PMS_P1;PMS_P2;Temp;Humidity;BMP_temperature;BMP_pressure;BME280_temperature;BME280_humidity;BME280_pressure;Samples;Min_cycle;Max_cycle;Signal;HPM_P1;HPM_P2
2023/05/18 00:01:22;;;;;;;8.13;4.03;;;;;;;;;;5034937;28;20655;-71
2023/05/18 00:04:27;;;;;;;8.13;4.50;;;;;;;;;;5022848;28;20189;-70
2023/05/18 00:07:32;;;;;;;8.83;4.93;;;;;;;;;;5011666;28;20181;-70
2023/05/18 00:10:37;;;;;;;8.10;4.10;;;;;;;;;;5022610;28;20185;-70
2023/05/18 00:13:41;;;;;;;6.43;4.23;;;;;;;;;;5034702;28;20695;-71
2023/05/18 00:16:46;;;;;;;6.07;4.20;;;;;;;;;;5035236;28;20177;-72
2023/05/18 00:19:50;;;;;;;8.83;4.70;;;;;;;;;;5000353;28;20185;-70
2023/05/18 00:22:54;;;;;;;9.47;4.77;;;;;;;;;;5034273;28;20232;-72
2023/05/18 00:25:59;;;;;;;7.70;4.10;;;;;;;;;;5022613;28;20537;-70
2023/05/18 00:29:04;;;;;;;6.53;4.30;;;;;;;;;;5022296;28;20658;-71
2023/05/18 00:32:09;;;;;;;5.50;3.93;;;;;;;;;;5022515;28;20671;-70
2023/05/18 00:35:17;;;;;;;7.57;4.40;;;;;;;;;;5034435;28;20200;-70
2023/05/18 00:38:21;;;;;;;6.90;4.70;;;;;;;;;;5021885;28;20185;-71
2023/05/18 00:41:26;;;;;;;6.63;4.50;;;;;;;;;;5022147;28;20208;-72
2023/05/18 00:44:30;;;;;;;6.17;4.37;;;;;;;;;;5022108;28;20185;-71
2023/05/18 00:47:35;;;;;;;9.33;4.37;;;;;;;;;;5021950;28;20192;-72
2023/05/18 00:50:39;;;;;;;6.37;4.37;;;;;;;;;;5010951;28;20518;-71
2023/05/18 00:53:43;;;;;;;8.70;4.50;;;;;;;;;;5022004;28;20519;-71
2023/05/18 00:56:48;;;;;;;6.57;4.93;;;;;;;;;;5021613;28;20206;-71
2023/05/18 00:59:52;;;;;;;8.60;5.03;;;;;;;;;;5021910;28;20643;-71
2023/05/18 01:02:56;;;;;;;6.03;4.20;;;;;;;;;;5021415;28;20707;-71
2023/05/18 01:06:04;;;;;;;7.10;4.63;;;;;;;;;;5010182;28;20173;-71
2023/05/18 01:09:10;;;;;;;5.20;3.93;;;;;;;;;;5033618;28;20180;-70
2023/05/18 01:12:24;;;;;;;7.40;4.20;;;;;;;;;;5021028;28;20208;-70
2023/05/18 01:15:36;;;;;;;10.10;4.70;;;;;;;;;;5021562;28;20185;-71
2023/05/18 01:18:50;;;;;;;7.70;4.60;;;;;;;;;;5021419;28;20177;-71
2023/05/18 01:22:02;;;;;;;6.10;4.17;;;;;;;;;;5033191;28;20229;-71
2023/05/18 01:25:31;;;;;;;9.40;4.67;;;;;;;;;;5009831;28;20529;-71
2023/05/18 01:28:35;;;;;;;6.93;3.80;;;;;;;;;;5021593;28;20176;-71
2023/05/18 01:31:40;;;;;;;10.13;4.47;;;;;;;;;;5009781;28;20209;-71
2023/05/18 01:34:44;;;;;;;8.83;4.43;;;;;;;;;;5021192;28;20196;-72
2023/05/18 01:37:48;;;;;;;7.57;4.50;;;;;;;;;;5033067;28;20204;-72
2023/05/18 01:41:00;;;;;;;7.70;4.50;;;;;;;;;;5010221;28;20176;-71
2023/05/18 01:44:16;;;;;;;9.23;4.57;;;;;;;;;;5021237;28;20177;-71
2023/05/18 01:47:21;;;;;;;6.97;4.43;;;;;;;;;;5033777;28;20180;-72
2023/05/18 01:50:36;;;;;;;7.83;4.27;;;;;;;;;;5009691;28;20184;-71
2023/05/18 01:53:50;;;;;;;6.17;4.27;;;;;;;;;;5010099;28;20238;-71
2023/05/18 01:56:54;;;;;;;7.20;4.50;;;;;;;;;;5010029;28;20188;-71
2023/05/18 02:00:00;;;;;;;9.30;4.60;;;;;;;;;;5021111;28;20180;-71
2023/05/18 02:03:04;;;;;;;10.17;5.03;;;;;;;;;;5009428;28;20224;-71
2023/05/18 02:06:09;;;;;;;7.57;4.47;;;;;;;;;;5020990;28;20176;-71
2023/05/18 02:09:13;;;;;;;7.73;4.20;;;;;;;;;;5020746;28;20173;-71
2023/05/18 02:12:17;;;;;;;9.53;4.40;;;;;;;;;;5020634;28;20212;-71
2023/05/18 02:15:21;;;;;;;7.03;4.13;;;;;;;;;;5020895;28;20181;-71
2023/05/18 02:18:26;;;;;;;6.27;4.07;;;;;;;;;;5033146;28;20181;-71
2023/05/18 02:21:30;;;;;;;11.73;4.63;;;;;;;;;;5033154;28;20180;-71
2023/05/18 02:24:35;;;;;;;7.83;4.73;;;;;;;;;;5036255;28;20176;-71
2023/05/18 02:27:40;;;;;;;10.30;4.80;;;;;;;;;;5024785;28;20177;-71
2023/05/18 02:30:44;;;;;;;8.57;4.53;;;;;;;;;;5036731;28;20185;-71
2023/05/18 02:33:49;;;;;;;6.97;4.17;;;;;;;;;;5036805;28;20180;-71
2023/05/18 02:36:56;;;;;;;8.67;4.37;;;;;;;;;;5013073;28;20200;-71
2023/05/18 02:40:00;;;;;;;11.13;4.37;;;;;;;;;;5036291;28;20635;-71
2023/05/18 02:43:04;;;;;;;13.97;4.47;;;;;;;;;;5012607;28;20228;-71
2023/05/18 02:46:08;;;;;;;6.57;4.43;;;;;;;;;;5024645;28;20176;-71
2023/05/18 02:49:12;;;;;;;7.87;4.23;;;;;;;;;;5024160;28;20196;-71
2023/05/18 02:52:17;;;;;;;7.47;4.10;;;;;;;;;;5024114;28;20213;-71
2023/05/18 02:55:21;;;;;;;6.53;4.57;;;;;;;;;;5012917;28;20173;-71
2023/05/18 02:58:49;;;;;;;8.23;4.47;;;;;;;;;;5012771;28;20181;-71
2023/05/18 03:02:00;;;;;;;8.10;4.00;;;;;;;;;;5023826;28;20225;-71
2023/05/18 03:05:05;;;;;;;8.80;4.30;;;;;;;;;;5024208;28;20181;-71
2023/05/18 03:08:10;;;;;;;8.73;4.40;;;;;;;;;;5012886;28;20181;-72
2023/05/18 03:11:14;;;;;;;9.27;4.53;;;;;;;;;;5024056;28;20517;-71
2023/05/18 03:14:18;;;;;;;8.13;4.70;;;;;;;;;;5023811;28;20556;-71
2023/05/18 03:17:22;;;;;;;9.00;4.30;;;;;;;;;;5012206;28;20631;-71
2023/05/18 03:20:28;;;;;;;10.60;4.43;;;;;;;;;;5023874;28;20228;-71
2023/05/18 03:23:33;;;;;;;6.80;4.47;;;;;;;;;;5035758;28;20221;-71
2023/05/18 03:26:40;;;;;;;8.77;4.47;;;;;;;;;;5012266;28;20515;-71
2023/05/18 03:29:45;;;;;;;7.10;4.00;;;;;;;;;;5035643;28;20177;-71
2023/05/18 03:32:50;;;;;;;6.57;4.43;;;;;;;;;;5023169;28;20212;-72
2023/05/18 03:35:54;;;;;;;9.93;4.30;;;;;;;;;;5022857;28;20200;-71
2023/05/18 03:38:58;;;;;;;10.13;4.30;;;;;;;;;;5012249;28;20181;-71
2023/05/18 03:42:03;;;;;;;7.13;4.20;;;;;;;;;;5011480;28;20229;-71
2023/05/18 03:45:09;;;;;;;7.07;4.20;;;;;;;;;;5023125;28;20200;-71
2023/05/18 03:48:13;;;;;;;7.47;4.57;;;;;;;;;;5022806;28;20177;-71
2023/05/18 03:51:18;;;;;;;6.40;4.20;;;;;;;;;;5022683;28;20204;-71
2023/05/18 03:54:23;;;;;;;9.83;4.60;;;;;;;;;;5011721;28;20196;-71
2023/05/18 03:57:28;;;;;;;6.77;3.43;;;;;;;;;;5023512;28;20188;-71
2023/05/18 04:00:33;;;;;;;12.97;4.30;;;;;;;;;;5022877;28;20512;-71
2023/05/18 04:03:39;;;;;;;8.07;4.13;;;;;;;;;;5034562;28;20228;-71
2023/05/18 04:06:45;;;;;;;10.03;4.40;;;;;;;;;;5022511;28;20181;-71
2023/05/18 04:09:50;;;;;;;6.07;3.50;;;;;;;;;;5034665;28;20648;-71
2023/05/18 04:12:55;;;;;;;8.77;4.57;;;;;;;;;;5022442;28;20220;-71
2023/05/18 04:15:59;;;;;;;8.10;4.67;;;;;;;;;;5022564;28;20188;-71
2023/05/18 04:19:04;;;;;;;8.63;4.30;;;;;;;;;;5022217;28;20667;-71
2023/05/18 04:22:09;;;;;;;10.27;4.10;;;;;;;;;;5034223;28;20221;-72
2023/05/18 04:25:14;;;;;;;7.70;3.50;;;;;;;;;;5022446;28;20177;-71
2023/05/18 04:28:19;;;;;;;11.87;3.73;;;;;;;;;;5022551;28;20180;-71
2023/05/18 04:31:25;;;;;;;12.43;4.33;;;;;;;;;;5022350;28;20176;-71
2023/05/18 04:34:30;;;;;;;6.73;3.87;;;;;;;;;;5022536;28;20176;-71
2023/05/18 04:37:34;;;;;;;8.30;4.43;;;;;;;;;;5036123;23;20228;-74
2023/05/18 04:40:41;;;;;;;8.93;4.07;;;;;;;;;;5033548;28;20181;-74
2023/05/18 04:43:52;;;;;;;5.20;3.50;;;;;;;;;;5013602;28;20545;-74
2023/05/18 04:46:56;;;;;;;5.67;3.70;;;;;;;;;;4979470;28;20193;-73
2023/05/18 04:50:02;;;;;;;7.83;4.00;;;;;;;;;;4991004;28;20664;-73
2023/05/18 04:53:07;;;;;;;7.77;3.83;;;;;;;;;;4990743;28;20213;-73
2023/05/18 04:56:12;;;;;;;5.33;3.87;;;;;;;;;;5001944;28;20197;-73
2023/05/18 04:59:17;;;;;;;7.53;4.33;;;;;;;;;;5002106;28;20197;-74
2023/05/18 05:02:21;;;;;;;7.67;5.63;;;;;;;;;;5002034;28;20220;-75
2023/05/18 05:05:25;;;;;;;7.23;5.70;;;;;;;;;;5001837;28;20641;-72
2023/05/18 05:08:30;;;;;;;10.67;5.47;;;;;;;;;;5013918;28;20186;-72
2023/05/18 05:11:34;;;;;;;9.73;5.00;;;;;;;;;;5002142;28;20177;-73
2023/05/18 05:14:37;;;;;;;6.33;4.30;;;;;;;;;;5001970;28;20174;-73
2023/05/18 05:17:42;;;;;;;6.30;4.63;;;;;;;;;;5001788;28;20186;-73
2023/05/18 05:20:48;;;;;;;8.27;5.03;;;;;;;;;;5002050;28;20256;-73
2023/05/18 05:23:53;;;;;;;13.03;7.00;;;;;;;;;;5001402;28;20221;-75
2023/05/18 05:26:57;;;;;;;11.97;6.37;;;;;;;;;;5001663;28;20181;-72
2023/05/18 05:30:02;;;;;;;10.13;6.80;;;;;;;;;;5001732;28;20185;-73
2023/05/18 05:33:08;;;;;;;26.53;13.67;;;;;;;;;;5001780;28;20693;-73
2023/05/18 05:36:13;;;;;;;33.57;19.97;;;;;;;;;;5002236;28;20192;-73
2023/05/18 05:39:17;;;;;;;24.03;14.17;;;;;;;;;;5001432;28;20186;-72
2023/05/18 05:42:21;;;;;;;14.53;9.63;;;;;;;;;;5013216;28;20220;-73
2023/05/18 05:45:29;;;;;;;15.10;7.23;;;;;;;;;;5001244;28;20189;-72
2023/05/18 05:48:36;;;;;;;11.97;6.83;;;;;;;;;;4991031;28;20197;-73
2023/05/18 05:51:40;;;;;;;9.53;5.53;;;;;;;;;;5001652;28;20585;-73
2023/05/18 05:54:45;;;;;;;12.00;4.80;;;;;;;;;;5001242;28;20177;-72
2023/05/18 05:57:49;;;;;;;6.80;3.80;;;;;;;;;;4990709;28;20182;-73
2023/05/18 06:00:53;;;;;;;10.70;4.07;;;;;;;;;;4994486;28;20181;-72
2023/05/18 06:03:57;;;;;;;7.47;3.67;;;;;;;;;;5017153;28;20209;-72
2023/05/18 06:07:02;;;;;;;9.80;2.90;;;;;;;;;;5005492;28;20205;-72
2023/05/18 06:10:07;;;;;;;9.00;2.90;;;;;;;;;;5005102;28;20181;-72
2023/05/18 06:13:11;;;;;;;5.67;3.27;;;;;;;;;;5016186;28;20221;-72
2023/05/18 06:16:24;;;;;;;8.37;3.00;;;;;;;;;;5005459;28;20177;-72
2023/05/18 06:19:28;;;;;;;8.93;3.17;;;;;;;;;;5016426;28;20182;-72
2023/05/18 06:22:32;;;;;;;8.23;2.93;;;;;;;;;;4993717;28;20213;-72
2023/05/18 06:25:58;;;;;;;35.80;15.30;;;;;;;;;;4996469;28;20185;-72
2023/05/18 06:29:14;;;;;;;17.20;5.87;;;;;;;;;;5004823;28;20655;-72
2023/05/18 06:32:31;;;;;;;11.83;2.67;;;;;;;;;;4993716;28;20212;-72
2023/05/18 06:35:35;;;;;;;6.53;3.13;;;;;;;;;;4993594;28;20189;-72
2023/05/18 06:38:40;;;;;;;8.40;3.90;;;;;;;;;;5004726;28;20201;-73
2023/05/18 06:41:44;;;;;;;8.50;2.80;;;;;;;;;;5016980;28;20213;-72
2023/05/18 06:44:58;;;;;;;6.10;3.33;;;;;;;;;;5015649;28;20203;-72
2023/05/18 06:48:25;;;;;;;7.03;2.77;;;;;;;;;;5016346;28;20189;-73
2023/05/18 06:51:30;;;;;;;8.87;2.80;;;;;;;;;;5016251;28;20178;-73
2023/05/18 06:54:36;;;;;;;9.63;3.13;;;;;;;;;;5004326;28;20189;-72
2023/05/18 06:57:40;;;;;;;6.57;2.70;;;;;;;;;;4993247;28;20625;-72
2023/05/18 07:00:45;;;;;;;9.80;2.70;;;;;;;;;;4993366;28;20177;-73
2023/05/18 07:03:50;;;;;;;7.77;2.80;;;;;;;;;;5003959;28;20197;-72
2023/05/18 07:06:54;;;;;;;7.83;2.83;;;;;;;;;;5016338;28;20215;-72
2023/05/18 07:09:59;;;;;;;10.23;3.27;;;;;;;;;;5015073;28;20186;-73
2023/05/18 07:13:03;;;;;;;7.83;2.90;;;;;;;;;;5003996;28;20225;-73
2023/05/18 07:16:07;;;;;;;9.27;2.70;;;;;;;;;;5004003;28;20185;-72
2023/05/18 07:19:12;;;;;;;9.17;2.53;;;;;;;;;;5015793;28;20185;-72
2023/05/18 07:22:16;;;;;;;8.47;2.87;;;;;;;;;;5016148;28;20217;-73
2023/05/18 07:25:22;;;;;;;7.80;2.70;;;;;;;;;;5016282;28;20629;-73
2023/05/18 07:28:25;;;;;;;7.50;2.50;;;;;;;;;;5016153;28;20185;-73
2023/05/18 07:31:30;;;;;;;10.30;2.83;;;;;;;;;;5015770;28;20181;-74
2023/05/18 07:34:34;;;;;;;6.57;2.23;;;;;;;;;;5003698;28;20193;-73
2023/05/18 07:37:38;;;;;;;5.37;2.20;;;;;;;;;;5015607;28;20209;-73
2023/05/18 07:40:42;;;;;;;6.90;2.80;;;;;;;;;;5015951;28;20181;-73
2023/05/18 07:43:46;;;;;;;8.60;2.23;;;;;;;;;;5003488;28;20197;-73
2023/05/18 07:46:50;;;;;;;8.70;2.23;;;;;;;;;;5003481;28;20522;-74
2023/05/18 07:49:55;;;;;;;14.10;3.03;;;;;;;;;;5003491;28;20178;-73
2023/05/18 07:52:59;;;;;;;5.63;2.07;;;;;;;;;;5015409;28;20213;-74
2023/05/18 07:56:04;;;;;;;8.20;2.40;;;;;;;;;;5015478;28;20633;-73
2023/05/18 07:59:08;;;;;;;5.90;2.47;;;;;;;;;;5015361;28;20182;-73
2023/05/18 08:02:15;;;;;;;10.10;2.77;;;;;;;;;;5003356;28;20225;-73
2023/05/18 08:05:21;;;;;;;7.67;2.73;;;;;;;;;;5015372;28;20209;-74
2023/05/18 08:08:25;;;;;;;6.40;2.33;;;;;;;;;;5015324;28;20190;-74
2023/05/18 08:11:29;;;;;;;11.53;2.97;;;;;;;;;;5015036;28;20185;-74
2023/05/18 08:14:33;;;;;;;10.53;2.90;;;;;;;;;;5014733;28;20189;-74
2023/05/18 08:17:37;;;;;;;6.10;2.30;;;;;;;;;;5002710;28;20192;-73
2023/05/18 08:20:42;;;;;;;8.03;2.40;;;;;;;;;;5002783;28;20189;-73
2023/05/18 08:23:47;;;;;;;7.33;2.40;;;;;;;;;;5014592;28;20202;-73
2023/05/18 08:26:51;;;;;;;10.13;2.20;;;;;;;;;;5014732;28;20182;-73
2023/05/18 08:29:55;;;;;;;7.47;2.67;;;;;;;;;;5002748;28;20180;-73
2023/05/18 08:32:59;;;;;;;7.83;2.40;;;;;;;;;;5014325;28;20213;-74
2023/05/18 08:36:03;;;;;;;11.43;2.20;;;;;;;;;;5014701;28;20624;-73
2023/05/18 08:39:08;;;;;;;7.33;2.37;;;;;;;;;;5014314;28;20185;-73
2023/05/18 08:42:22;;;;;;;4.80;1.97;;;;;;;;;;5014239;28;20560;-73
2023/05/18 08:45:41;;;;;;;7.10;2.40;;;;;;;;;;5014669;28;20209;-74
2023/05/18 08:48:46;;;;;;;5.37;2.40;;;;;;;;;;5014423;28;20632;-73
2023/05/18 08:51:56;;;;;;;6.50;2.60;;;;;;;;;;5014388;28;20224;-73
2023/05/18 08:55:05;;;;;;;7.47;2.23;;;;;;;;;;5013276;28;20190;-73
2023/05/18 08:58:12;;;;;;;6.43;2.33;;;;;;;;;;5014546;28;20178;-73
2023/05/18 09:01:17;;;;;;;8.70;2.47;;;;;;;;;;5002186;28;20178;-73
2023/05/18 09:04:22;;;;;;;5.07;2.20;;;;;;;;;;5014363;28;20201;-73
2023/05/18 09:07:27;;;;;;;5.23;2.00;;;;;;;;;;5014067;28;20189;-73
2023/05/18 09:10:32;;;;;;;9.40;2.60;;;;;;;;;;5014075;28;20205;-73
2023/05/18 09:13:37;;;;;;;7.67;2.30;;;;;;;;;;5001612;28;20703;-73
2023/05/18 09:16:41;;;;;;;7.47;2.30;;;;;;;;;;5013872;28;20186;-73
2023/05/18 09:19:45;;;;;;;6.70;1.97;;;;;;;;;;5013935;28;20203;-73
2023/05/18 09:22:50;;;;;;;5.10;1.93;;;;;;;;;;5001914;28;20573;-74
2023/05/18 09:25:55;;;;;;;9.90;2.43;;;;;;;;;;5001953;28;20236;-73
2023/05/18 09:29:00;;;;;;;5.80;2.40;;;;;;;;;;5014154;28;20518;-73
2023/05/18 09:32:09;;;;;;;9.47;2.40;;;;;;;;;;4990213;28;20221;-74
2023/05/18 09:35:14;;;;;;;6.23;2.00;;;;;;;;;;5001694;28;20189;-73
2023/05/18 09:38:21;;;;;;;8.03;2.40;;;;;;;;;;5001210;28;20201;-74
2023/05/18 09:41:26;;;;;;;9.07;2.70;;;;;;;;;;5013742;28;20178;-74
2023/05/18 09:44:33;;;;;;;4.83;2.10;;;;;;;;;;5012843;28;20201;-73
2023/05/18 09:47:37;;;;;;;14.10;2.40;;;;;;;;;;5013395;28;20189;-74
2023/05/18 09:50:44;;;;;;;5.77;2.27;;;;;;;;;;5001362;28;20188;-74
2023/05/18 09:53:54;;;;;;;8.67;2.30;;;;;;;;;;5012507;28;20201;-74
2023/05/18 09:56:59;;;;;;;5.70;2.13;;;;;;;;;;5013375;28;20181;-73
2023/05/18 10:00:09;;;;;;;5.57;2.53;;;;;;;;;;5013060;28;20197;-73
2023/05/18 10:03:20;;;;;;;8.10;2.20;;;;;;;;;;5013105;28;20213;-73
2023/05/18 10:06:26;;;;;;;6.07;2.40;;;;;;;;;;5013684;28;20169;-74
2023/05/18 10:09:30;;;;;;;7.63;2.30;;;;;;;;;;5013314;28;20522;-74
2023/05/18 10:12:39;;;;;;;8.53;2.13;;;;;;;;;;5013140;28;20221;-74
2023/05/18 10:15:49;;;;;;;11.80;2.57;;;;;;;;;;5013183;28;20178;-74
2023/05/18 10:18:54;;;;;;;6.03;2.23;;;;;;;;;;5013346;28;20552;-73
2023/05/18 10:22:00;;;;;;;7.30;2.40;;;;;;;;;;5013429;28;20221;-74
2023/05/18 10:25:06;;;;;;;5.83;2.13;;;;;;;;;;5012935;28;20676;-74
2023/05/18 10:28:10;;;;;;;6.37;2.30;;;;;;;;;;5012346;28;20248;-73
2023/05/18 10:31:15;;;;;;;7.67;2.07;;;;;;;;;;5012802;28;20197;-74
2023/05/18 10:34:21;;;;;;;3.73;2.00;;;;;;;;;;5013071;28;20174;-74
2023/05/18 10:37:29;;;;;;;8.97;2.60;;;;;;;;;;5013003;28;20209;-74
2023/05/18 10:40:35;;;;;;;7.53;2.40;;;;;;;;;;5013215;28;20178;-74
2023/05/18 10:43:40;;;;;;;8.10;2.30;;;;;;;;;;5012893;28;20214;-74
2023/05/18 10:46:44;;;;;;;5.87;2.00;;;;;;;;;;5015344;28;20177;-74
2023/05/18 10:49:49;;;;;;;6.67;2.20;;;;;;;;;;5016226;28;20193;-74
2023/05/18 10:52:54;;;;;;;5.27;1.90;;;;;;;;;;5004363;28;20213;-74
2023/05/18 10:55:58;;;;;;;9.40;2.17;;;;;;;;;;5016144;28;20182;-74
2023/05/18 10:59:05;;;;;;;3.17;1.87;;;;;;;;;;5016367;28;20186;-74
2023/05/18 11:02:15;;;;;;;6.33;1.80;;;;;;;;;;5004419;28;20217;-74
2023/05/18 11:05:25;;;;;;;5.97;2.23;;;;;;;;;;5015859;28;20205;-73
2023/05/18 11:08:28;;;;;;;7.10;2.13;;;;;;;;;;5016381;28;20186;-74
2023/05/18 11:11:51;;;;;;;6.20;2.50;;;;;;;;;;5016380;28;20178;-74
2023/05/18 11:14:56;;;;;;;6.27;2.40;;;;;;;;;;5003937;28;20176;-74
2023/05/18 11:18:13;;;;;;;4.37;2.07;;;;;;;;;;5015869;28;20629;-74
2023/05/18 11:21:23;;;;;;;6.93;2.07;;;;;;;;;;5015960;28;20197;-73
2023/05/18 11:24:31;;;;;;;8.13;2.47;;;;;;;;;;5003548;28;20201;-73
2023/05/18 11:27:37;;;;;;;5.53;2.10;;;;;;;;;;5016089;28;20625;-73
2023/05/18 11:30:40;;;;;;;9.10;2.40;;;;;;;;;;5003616;28;20182;-73
2023/05/18 11:33:45;;;;;;;4.73;2.23;;;;;;;;;;5015953;28;20190;-74
2023/05/18 11:36:55;;;;;;;7.17;2.67;;;;;;;;;;5003133;28;20518;-73
2023/05/18 11:39:58;;;;;;;9.97;2.90;;;;;;;;;;5015346;28;20181;-73
2023/05/18 11:43:02;;;;;;;7.00;2.23;;;;;;;;;;5003373;28;20221;-74
2023/05/18 11:46:17;;;;;;;5.03;2.30;;;;;;;;;;5003264;28;20687;-74
2023/05/18 11:49:26;;;;;;;6.07;2.20;;;;;;;;;;5015953;28;20186;-73
2023/05/18 11:52:30;;;;;;;5.07;2.20;;;;;;;;;;5015228;28;20222;-73
2023/05/18 11:55:40;;;;;;;7.20;2.50;;;;;;;;;;5014574;28;20182;-74
2023/05/18 11:58:44;;;;;;;7.07;2.00;;;;;;;;;;5015432;28;20201;-74
2023/05/18 12:01:48;;;;;;;8.87;2.43;;;;;;;;;;5002897;28;20564;-74
2023/05/18 12:04:53;;;;;;;5.27;1.80;;;;;;;;;;5015070;28;20537;-74
2023/05/18 12:07:58;;;;;;;7.23;2.27;;;;;;;;;;5003342;28;20185;-74
2023/05/18 12:11:02;;;;;;;5.63;2.10;;;;;;;;;;5015600;28;20185;-73
2023/05/18 12:14:06;;;;;;;6.60;2.33;;;;;;;;;;5015482;28;20189;-74
2023/05/18 12:17:10;;;;;;;5.10;2.53;;;;;;;;;;5015133;28;20197;-74
2023/05/18 12:20:19;;;;;;;7.43;2.40;;;;;;;;;;5002527;28;20544;-74
2023/05/18 12:23:39;;;;;;;6.20;1.90;;;;;;;;;;5014860;28;20209;-74
2023/05/18 12:26:45;;;;;;;6.27;2.20;;;;;;;;;;5032495;23;20232;-73
2023/05/18 12:29:49;;;;;;;9.90;2.30;;;;;;;;;;5034627;28;20180;-71
2023/05/18 12:32:55;;;;;;;4.80;2.10;;;;;;;;;;5034439;28;20212;-71
2023/05/18 12:35:59;;;;;;;5.30;2.50;;;;;;;;;;5022315;28;20181;-73
2023/05/18 12:39:03;;;;;;;6.20;2.50;;;;;;;;;;5034271;28;20181;-71
2023/05/18 12:42:13;;;;;;;7.30;2.20;;;;;;;;;;5010836;28;20216;-73
2023/05/18 12:45:19;;;;;;;4.13;1.90;;;;;;;;;;5034250;28;20560;-73
2023/05/18 12:48:25;;;;;;;5.17;2.37;;;;;;;;;;5033950;28;20201;-73
2023/05/18 12:51:34;;;;;;;8.97;2.70;;;;;;;;;;5034333;28;20180;-70
2023/05/18 12:54:49;;;;;;;6.87;2.63;;;;;;;;;;5033917;28;20639;-70
2023/05/18 12:58:03;;;;;;;7.07;2.03;;;;;;;;;;5022174;28;20554;-70
2023/05/18 13:01:10;;;;;;;10.93;2.47;;;;;;;;;;5033675;28;20204;-70
2023/05/18 13:04:15;;;;;;;9.73;2.63;;;;;;;;;;5022096;28;20181;-71
2023/05/18 13:07:19;;;;;;;7.27;2.47;;;;;;;;;;5033348;28;20659;-70
2023/05/18 13:10:23;;;;;;;8.80;2.17;;;;;;;;;;5021473;28;20200;-71
2023/05/18 13:13:27;;;;;;;5.63;2.30;;;;;;;;;;5033645;28;20212;-71
2023/05/18 13:16:44;;;;;;;7.90;2.33;;;;;;;;;;5033452;28;20509;-71
2023/05/18 13:19:56;;;;;;;7.03;2.13;;;;;;;;;;5033710;28;20181;-70
2023/05/18 13:23:06;;;;;;;7.97;2.17;;;;;;;;;;5021173;28;20703;-71
2023/05/18 13:26:10;;;;;;;6.53;2.13;;;;;;;;;;5033527;28;20212;-70
2023/05/18 13:29:14;;;;;;;8.67;2.20;;;;;;;;;;5033274;28;20185;-70
2023/05/18 13:32:18;;;;;;;7.70;2.40;;;;;;;;;;5021049;28;20211;-70
2023/05/18 13:35:22;;;;;;;5.63;2.40;;;;;;;;;;5033508;28;20505;-70
2023/05/18 13:38:26;;;;;;;9.33;1.97;;;;;;;;;;5033377;28;20180;-71
2023/05/18 13:41:31;;;;;;;8.10;2.40;;;;;;;;;;5033293;28;20184;-71
2023/05/18 13:44:35;;;;;;;7.97;2.63;;;;;;;;;;5033560;28;20184;-70
2023/05/18 13:47:40;;;;;;;9.60;2.27;;;;;;;;;;5021301;28;20169;-70
2023/05/18 13:50:44;;;;;;;10.30;2.57;;;;;;;;;;5033968;28;20184;-70
2023/05/18 13:53:48;;;;;;;4.67;1.93;;;;;;;;;;5033586;28;20196;-70
2023/05/18 13:56:53;;;;;;;5.20;2.40;;;;;;;;;;5033303;28;20173;-70
2023/05/18 13:59:58;;;;;;;10.87;2.43;;;;;;;;;;5021538;28;20647;-70
2023/05/18 14:03:03;;;;;;;5.70;1.83;;;;;;;;;;5033245;28;20579;-70
2023/05/18 14:06:07;;;;;;;12.33;2.50;;;;;;;;;;5033145;28;20197;-70
2023/05/18 14:09:11;;;;;;;9.27;3.10;;;;;;;;;;5020948;28;20207;-71
2023/05/18 14:12:15;;;;;;;7.27;2.07;;;;;;;;;;5020773;28;20216;-71
2023/05/18 14:15:19;;;;;;;6.93;2.50;;;;;;;;;;5032931;28;20185;-71
2023/05/18 14:18:23;;;;;;;7.17;2.70;;;;;;;;;;5020819;28;20189;-70
2023/05/18 14:21:27;;;;;;;6.50;2.67;;;;;;;;;;5037079;28;20627;-71
2023/05/18 14:24:31;;;;;;;7.63;2.60;;;;;;;;;;5036501;28;20193;-71
2023/05/18 14:27:36;;;;;;;5.90;2.60;;;;;;;;;;5036786;28;20169;-71
2023/05/18 14:30:40;;;;;;;9.87;3.00;;;;;;;;;;5024761;28;20184;-71
2023/05/18 14:33:44;;;;;;;6.77;2.33;;;;;;;;;;5024730;28;20185;-71
2023/05/18 14:36:48;;;;;;;7.97;2.93;;;;;;;;;;5024656;28;20193;-71
2023/05/18 14:39:52;;;;;;;7.17;2.07;;;;;;;;;;5024473;28;20208;-71
2023/05/18 14:42:56;;;;;;;10.37;2.30;;;;;;;;;;5036245;28;20224;-71
2023/05/18 14:46:00;;;;;;;6.97;2.53;;;;;;;;;;5036590;28;20208;-71
2023/05/18 14:49:04;;;;;;;9.80;2.47;;;;;;;;;;5024565;28;20177;-71
2023/05/18 14:52:10;;;;;;;5.63;2.40;;;;;;;;;;5035952;28;20220;-71
2023/05/18 14:55:14;;;;;;;4.50;1.90;;;;;;;;;;5035951;28;20188;-71
2023/05/18 14:58:18;;;;;;;6.33;2.23;;;;;;;;;;5036179;28;20177;-71
2023/05/18 15:01:22;;;;;;;5.83;2.27;;;;;;;;;;5036056;28;20632;-72
2023/05/18 15:04:26;;;;;;;4.23;2.13;;;;;;;;;;5036073;28;20639;-71
2023/05/18 15:07:30;;;;;;;5.47;2.37;;;;;;;;;;5024116;28;20177;-71
2023/05/18 15:10:34;;;;;;;6.87;2.33;;;;;;;;;;5035712;28;20185;-71
2023/05/18 15:13:39;;;;;;;8.23;2.50;;;;;;;;;;5035803;28;20216;-71
2023/05/18 15:16:43;;;;;;;8.37;2.50;;;;;;;;;;5035718;28;20173;-71
2023/05/18 15:19:47;;;;;;;20.60;2.87;;;;;;;;;;5012678;28;20176;-70
2023/05/18 15:22:51;;;;;;;4.83;2.20;;;;;;;;;;5023770;28;20229;-73
2023/05/18 15:25:55;;;;;;;6.57;2.10;;;;;;;;;;5035356;28;20216;-72
2023/05/18 15:28:59;;;;;;;11.77;2.40;;;;;;;;;;5035878;28;20623;-71
2023/05/18 15:32:04;;;;;;;8.47;2.30;;;;;;;;;;5022736;28;20216;-71
2023/05/18 15:35:08;;;;;;;6.37;2.43;;;;;;;;;;5035488;28;20528;-71
2023/05/18 15:38:12;;;;;;;5.07;2.17;;;;;;;;;;5035398;28;20177;-71
2023/05/18 15:41:18;;;;;;;5.80;2.50;;;;;;;;;;5023483;28;20185;-71
2023/05/18 15:44:22;;;;;;;9.00;2.70;;;;;;;;;;5035397;28;20177;-71
2023/05/18 15:47:26;;;;;;;8.60;2.40;;;;;;;;;;5035330;28;20209;-71
2023/05/18 15:50:30;;;;;;;6.57;2.90;;;;;;;;;;5023066;28;20632;-71
2023/05/18 15:53:34;;;;;;;13.03;4.50;;;;;;;;;;5034849;28;20224;-71
2023/05/18 15:56:38;;;;;;;9.23;3.37;;;;;;;;;;5035124;28;20196;-71
2023/05/18 15:59:42;;;;;;;7.90;3.43;;;;;;;;;;5035567;28;20497;-71
2023/05/18 16:02:47;;;;;;;16.80;8.10;;;;;;;;;;5034662;28;20208;-71
2023/05/18 16:05:51;;;;;;;19.80;10.03;;;;;;;;;;5035308;28;20224;-71
2023/05/18 16:08:55;;;;;;;19.27;9.10;;;;;;;;;;5034586;28;20200;-71
2023/05/18 16:11:59;;;;;;;13.83;7.77;;;;;;;;;;5034988;28;20216;-72
2023/05/18 16:15:04;;;;;;;11.53;5.43;;;;;;;;;;5022858;28;20188;-71
2023/05/18 16:18:08;;;;;;;6.53;3.20;;;;;;;;;;5034390;28;20184;-71
2023/05/18 16:21:12;;;;;;;7.70;2.80;;;;;;;;;;5034331;28;20189;-71
2023/05/18 16:24:16;;;;;;;10.67;5.27;;;;;;;;;;5022506;28;20181;-71
2023/05/18 16:27:20;;;;;;;7.83;3.13;;;;;;;;;;5034401;28;20227;-71
2023/05/18 16:30:24;;;;;;;8.43;2.30;;;;;;;;;;5034479;28;20184;-71
2023/05/18 16:33:28;;;;;;;7.77;2.37;;;;;;;;;;5034282;28;20220;-71
2023/05/18 16:36:33;;;;;;;11.67;2.67;;;;;;;;;;5022189;28;20177;-71
2023/05/18 16:39:36;;;;;;;5.07;2.73;;;;;;;;;;5034458;28;20177;-72
2023/05/18 16:42:41;;;;;;;6.23;2.30;;;;;;;;;;5033862;28;20216;-72
2023/05/18 16:45:45;;;;;;;7.50;2.13;;;;;;;;;;5034382;28;20189;-72
2023/05/18 16:48:49;;;;;;;6.23;2.50;;;;;;;;;;5021681;28;20188;-72
2023/05/18 16:51:53;;;;;;;6.67;2.67;;;;;;;;;;5033897;28;20220;-72
2023/05/18 16:54:57;;;;;;;9.37;2.40;;;;;;;;;;5033988;28;20196;-72
2023/05/18 16:58:02;;;;;;;9.60;2.70;;;;;;;;;;5033856;28;20193;-72
2023/05/18 17:01:06;;;;;;;6.00;2.50;;;;;;;;;;5033894;28;20176;-72
2023/05/18 17:04:11;;;;;;;6.60;2.53;;;;;;;;;;5034085;28;20181;-72
2023/05/18 17:07:15;;;;;;;10.97;2.40;;;;;;;;;;5033672;28;20208;-72
2023/05/18 17:10:19;;;;;;;7.43;2.30;;;;;;;;;;5021286;28;20200;-72
2023/05/18 17:13:23;;;;;;;7.03;2.57;;;;;;;;;;5033852;28;20220;-72
2023/05/18 17:16:28;;;;;;;6.27;2.30;;;;;;;;;;5033885;28;20184;-73
2023/05/18 17:19:37;;;;;;;7.87;2.27;;;;;;;;;;5033299;28;20181;-72
2023/05/18 17:22:41;;;;;;;12.13;2.60;;;;;;;;;;5033205;28;20213;-72
2023/05/18 17:25:45;;;;;;;6.90;2.37;;;;;;;;;;5009983;28;20703;-72
2023/05/18 17:28:49;;;;;;;7.47;2.20;;;;;;;;;;5021081;28;20184;-72
2023/05/18 17:31:54;;;;;;;6.43;2.37;;;;;;;;;;5021487;28;20216;-72
2023/05/18 17:34:58;;;;;;;5.63;2.47;;;;;;;;;;5021341;28;20632;-72
2023/05/18 17:38:02;;;;;;;7.80;2.37;;;;;;;;;;5033236;28;20667;-73
2023/05/18 17:41:06;;;;;;;4.83;2.20;;;;;;;;;;5033258;28;20197;-72
2023/05/18 17:44:13;;;;;;;6.50;2.90;;;;;;;;;;5033003;28;20177;-72
2023/05/18 17:47:17;;;;;;;5.70;2.57;;;;;;;;;;5033045;28;20204;-72
2023/05/18 17:50:22;;;;;;;5.93;2.80;;;;;;;;;;5020828;28;20185;-72
2023/05/18 17:53:26;;;;;;;9.07;2.67;;;;;;;;;;5033365;28;20220;-73
2023/05/18 17:56:30;;;;;;;8.10;2.90;;;;;;;;;;5040041;28;20616;-72
2023/05/18 17:59:35;;;;;;;5.67;2.10;;;;;;;;;;5039932;28;20528;-72
2023/05/18 18:02:40;;;;;;;6.10;2.67;;;;;;;;;;5027589;28;20212;-72
2023/05/18 18:05:44;;;;;;;8.87;2.83;;;;;;;;;;5039417;28;20185;-72
2023/05/18 18:08:52;;;;;;;7.90;3.00;;;;;;;;;;5016251;28;20184;-72
2023/05/18 18:11:56;;;;;;;5.13;2.50;;;;;;;;;;5027461;28;20254;-72
2023/05/18 18:15:01;;;;;;;6.40;2.90;;;;;;;;;;5039880;28;20176;-72
2023/05/18 18:18:05;;;;;;;7.93;3.13;;;;;;;;;;5039405;28;20181;-72
2023/05/18 18:21:10;;;;;;;6.67;2.30;;;;;;;;;;5027132;28;20528;-72
2023/05/18 18:24:14;;;;;;;5.97;2.50;;;;;;;;;;5027227;28;20181;-72
2023/05/18 18:27:18;;;;;;;5.40;2.67;;;;;;;;;;5026999;28;20228;-72
2023/05/18 18:30:23;;;;;;;7.20;2.60;;;;;;;;;;5027774;28;20624;-72